Time,TemperatureF,DewpointF,PressureIn,WindDirection,WindDirectionDegrees,WindSpeedMPH,WindSpeedGustMPH,Humidity,HourlyPrecipIn,Conditions,Clouds,dailyrainin,SolarRadiationWatts/m^2,SoftwareType,DateUTC
2013-05-16 08:10:00,73.7,34.6,29.84,SSE,149,5.0,5.0,24,0.00,,,0.00,533,Wunderground v.1.15,2013-05-16 15:10:00,
2013-05-16 08:20:00,74.7,34.4,29.84,SE,138,4.0,4.0,23,0.00,,,0.00,566,Wunderground v.1.15,2013-05-16 15:20:00,
2013-05-16 08:30:00,76.4,33.6,29.84,SSE,163,4.0,5.0,21,0.00,,,0.00,601,Wunderground v.1.15,2013-05-16 15:30:00,
2013-05-16 08:40:00,77.4,33.2,29.83,South,172,5.0,5.0,20,0.00,,,0.00,631,Wunderground v.1.15,2013-05-16 15:40:00,
2013-05-16 08:50:00,78.4,31.4,29.83,South,180,5.0,5.0,18,0.00,,,0.00,664,Wunderground v.1.15,2013-05-16 15:50:00,
2013-05-16 09:00:00,79.0,33.2,29.83,SSW,196,6.0,6.0,19,0.00,,,0.00,694,Wunderground v.1.15,2013-05-16 16:00:00,
2013-05-16 09:10:00,79.9,31.2,29.83,South,177,6.0,6.0,17,0.00,,,0.00,722,Wunderground v.1.15,2013-05-16 16:10:00,
2013-05-16 09:20:00,80.7,31.8,29.82,South,187,5.0,14.0,17,0.00,,,0.00,752,Wunderground v.1.15,2013-05-16 16:20:00,
2013-05-16 09:30:00,81.6,31.0,29.83,SSW,194,4.0,14.0,16,0.00,,,0.00,782,Wunderground v.1.15,2013-05-16 16:30:00,
2013-05-16 09:40:00,82.0,31.4,29.82,South,184,4.0,14.0,16,0.00,,,0.00,810,Wunderground v.1.15,2013-05-16 16:40:00,
2013-05-16 09:50:00,82.7,31.9,29.82,SSE,167,5.0,5.0,16,0.00,,,0.00,833,Wunderground v.1.15,2013-05-16 16:50:00,
2013-05-16 10:00:00,83.4,30.9,29.82,South,188,4.0,4.0,15,0.00,,,0.00,860,Wunderground v.1.15,2013-05-16 17:00:00,
2013-05-16 10:10:00,83.9,31.3,29.82,SW,218,5.0,14.0,15,0.00,,,0.00,882,Wunderground v.1.15,2013-05-16 17:10:00,
2013-05-16 10:20:00,84.6,30.1,29.82,SSW,202,5.0,5.0,14,0.00,,,0.00,902,Wunderground v.1.15,2013-05-16 17:20:00,
2013-05-16 10:30:00,85.6,29.1,29.82,South,171,3.0,3.0,13,0.00,,,0.00,919,Wunderground v.1.15,2013-05-16 17:30:00,
2013-05-16 10:40:00,85.5,30.8,29.81,SSW,196,4.0,4.0,14,0.00,,,0.00,935,Wunderground v.1.15,2013-05-16 17:40:00,
2013-05-16 10:50:00,86.1,29.5,29.81,SSW,194,5.0,5.0,13,0.00,,,0.00,954,Wunderground v.1.15,2013-05-16 17:50:00,
2013-05-16 11:00:00,86.3,29.6,29.80,South,184,6.0,6.0,13,0.00,,,0.00,967,Wunderground v.1.15,2013-05-16 18:00:00,
2013-05-16 11:10:00,86.7,25.9,29.80,SSW,197,6.0,7.0,11,0.00,,,0.00,983,Wunderground v.1.15,2013-05-16 18:10:00,
2013-05-16 11:20:00,86.8,26.0,29.80,WSW,237,9.0,9.0,11,0.00,,,0.00,991,Wunderground v.1.15,2013-05-16 18:20:00,
2013-05-16 11:30:00,87.5,26.5,29.79,SSW,204,5.0,10.0,11,0.00,,,0.00,1002,Wunderground v.1.15,2013-05-16 18:30:00,
2013-05-16 11:40:00,88.2,29.2,29.79,SW,225,8.0,11.0,12,0.00,,,0.00,1011,Wunderground v.1.15,2013-05-16 18:40:00,
2013-05-16 11:50:00,87.7,26.7,29.78,SSW,192,8.0,14.0,11,0.00,,,0.00,1014,Wunderground v.1.15,2013-05-16 18:50:00,
2013-05-16 12:00:00,88.4,27.2,29.79,South,172,9.0,9.0,11,0.00,,,0.00,1018,Wunderground v.1.15,2013-05-16 19:00:00,
2013-05-16 12:10:00,88.6,27.3,29.78,SW,221,8.0,8.0,11,0.00,,,0.00,1020,Wunderground v.1.15,2013-05-16 19:10:00,
2013-05-16 12:20:00,88.9,25.3,29.78,SSW,192,7.0,7.0,10,0.00,,,0.00,1020,Wunderground v.1.15,2013-05-16 19:20:00,
2013-05-16 12:30:00,88.2,24.7,29.77,SW,214,10.0,18.0,10,0.00,,,0.00,1021,Wunderground v.1.15,2013-05-16 19:30:00,
2013-05-16 12:40:00,88.7,25.1,29.78,SSW,209,9.0,18.0,10,0.00,,,0.00,1018,Wunderground v.1.15,2013-05-16 19:40:00,
2013-05-16 12:50:00,89.1,25.4,29.77,South,190,8.0,8.0,10,0.00,,,0.00,1020,Wunderground v.1.15,2013-05-16 19:50:00,
2013-05-16 13:00:00,89.1,22.9,29.77,SSW,207,9.0,18.0,9,0.00,,,0.00,1007,Wunderground v.1.15,2013-05-16 20:00:00,
2013-05-16 13:10:00,89.8,23.4,29.77,SW,217,9.0,9.0,9,0.00,,,0.00,1000,Wunderground v.1.15,2013-05-16 20:10:00,
2013-05-16 13:20:00,89.9,20.7,29.76,SSW,203,8.0,18.0,8,0.00,,,0.00,991,Wunderground v.1.15,2013-05-16 20:20:00,
2013-05-16 13:30:00,90.0,26.1,29.77,SW,225,9.0,9.0,10,0.00,,,0.00,977,Wunderground v.1.15,2013-05-16 20:30:00,
2013-05-16 13:40:00,89.8,23.4,29.76,West,267,9.0,18.0,9,0.00,,,0.00,967,Wunderground v.1.15,2013-05-16 20:40:00,
2013-05-16 13:50:00,90.1,23.6,29.76,SSW,195,9.0,18.0,9,0.00,,,0.00,954,Wunderground v.1.15,2013-05-16 20:50:00,
2013-05-16 14:00:00,90.2,20.9,29.76,SSW,196,9.0,18.0,8,0.00,,,0.00,949,Wunderground v.1.15,2013-05-16 21:00:00,
2013-05-16 14:10:00,90.7,18.2,29.75,SW,224,8.0,18.0,7,0.00,,,0.00,916,Wunderground v.1.15,2013-05-16 21:10:00,
2013-05-16 14:20:00,90.2,20.9,29.75,SW,218,9.0,9.0,8,0.00,,,0.00,863,Wunderground v.1.15,2013-05-16 21:20:00,
2013-05-16 14:30:00,89.6,20.5,29.75,WSW,242,8.0,18.0,8,0.00,,,0.00,737,Wunderground v.1.15,2013-05-16 21:30:00,
2013-05-16 14:40:00,89.1,20.1,29.74,SW,229,8.0,18.0,8,0.00,,,0.00,759,Wunderground v.1.15,2013-05-16 21:40:00,
2013-05-16 14:50:00,89.3,20.3,29.74,SW,223,8.0,8.0,8,0.00,,,0.00,773,Wunderground v.1.15,2013-05-16 21:50:00,
2013-05-16 15:00:00,89.3,20.3,29.73,WSW,253,7.0,18.0,8,0.00,,,0.00,791,Wunderground v.1.15,2013-05-16 22:00:00,
2013-05-16 15:10:00,89.8,20.6,29.72,WSW,246,7.0,8.0,8,0.00,,,0.00,744,Wunderground v.1.15,2013-05-16 22:10:00,
2013-05-16 15:20:00,89.7,17.4,29.72,SSW,206,9.0,11.0,7,0.00,,,0.00,740,Wunderground v.1.15,2013-05-16 22:20:00,
2013-05-16 15:30:00,89.3,17.1,29.72,SSW,195,12.0,14.0,7,0.00,,,0.00,715,Wunderground v.1.15,2013-05-16 22:30:00,
2013-05-16 15:40:00,89.4,17.2,29.72,South,182,10.0,21.0,7,0.00,,,0.00,689,Wunderground v.1.15,2013-05-16 22:40:00,
2013-05-16 15:50:00,89.3,17.1,29.72,WSW,238,11.0,11.0,7,0.00,,,0.00,659,Wunderground v.1.15,2013-05-16 22:50:00,
2013-05-16 16:00:00,89.1,17.0,29.71,SW,228,8.0,8.0,7,0.00,,,0.00,626,Wunderground v.1.15,2013-05-16 23:00:00,
2013-05-16 16:10:00,89.1,13.5,29.71,WSW,241,9.0,19.0,6,0.00,,,0.00,596,Wunderground v.1.15,2013-05-16 23:10:00,
2013-05-16 16:20:00,89.2,13.5,29.71,WSW,256,7.0,19.0,6,0.00,,,0.00,566,Wunderground v.1.15,2013-05-16 23:20:00,
2013-05-16 16:30:00,88.6,13.1,29.71,WSW,244,8.0,8.0,6,0.00,,,0.00,527,Wunderground v.1.15,2013-05-16 23:30:00,
2013-05-16 16:40:00,88.1,8.6,29.71,WSW,239,7.0,7.0,5,0.00,,,0.00,496,Wunderground v.1.15,2013-05-16 23:40:00,
2013-05-16 16:50:00,88.1,8.6,29.71,WSW,238,7.0,7.0,5,0.00,,,0.00,445,Wunderground v.1.15,2013-05-16 23:50:00,
2013-05-16 17:00:00,87.9,12.6,29.70,SW,217,5.0,19.0,6,0.00,,,0.00,420,Wunderground v.1.15,2013-05-17 00:00:00,
2013-05-16 17:10:00,87.6,15.9,29.70,WSW,254,6.0,6.0,7,0.00,,,0.00,385,Wunderground v.1.15,2013-05-17 00:10:00,
2013-05-16 17:20:00,87.5,15.8,29.70,SW,215,5.0,5.0,7,0.00,,,0.00,348,Wunderground v.1.15,2013-05-17 00:20:00,
2013-05-16 17:30:00,87.2,15.6,29.70,SW,236,6.0,6.0,7,0.00,,,0.00,309,Wunderground v.1.15,2013-05-17 00:30:00,
2013-05-16 17:40:00,86.8,15.3,29.70,WSW,256,4.0,7.0,7,0.00,,,0.00,276,Wunderground v.1.15,2013-05-17 00:40:00,
2013-05-16 17:50:00,86.1,17.9,29.70,West,277,5.0,6.0,8,0.00,,,0.00,232,Wunderground v.1.15,2013-05-17 00:50:00,
2013-05-16 18:00:00,85.6,17.5,29.70,WSW,240,4.0,7.0,8,0.00,,,0.00,188,Wunderground v.1.15,2013-05-17 01:00:00,
2013-05-16 18:10:00,84.9,17.0,29.70,SSW,205,6.0,17.0,8,0.00,,,0.00,146,Wunderground v.1.15,2013-05-17 01:10:00,
2013-05-16 18:20:00,84.2,19.2,29.70,SW,218,4.0,17.0,9,0.00,,,0.00,109,Wunderground v.1.15,2013-05-17 01:20:00,
2013-05-16 18:30:00,83.3,18.5,29.70,SW,236,2.0,2.0,9,0.00,,,0.00,72,Wunderground v.1.15,2013-05-17 01:30:00,
2013-05-16 18:40:00,82.5,20.4,29.70,West,267,3.0,3.0,10,0.00,,,0.00,42,Wunderground v.1.15,2013-05-17 01:40:00,
2013-05-16 18:50:00,81.5,19.6,29.71,WSW,248,2.0,2.0,10,0.00,,,0.00,19,Wunderground v.1.15,2013-05-17 01:50:00,
2013-05-16 19:00:00,79.4,20.3,29.71,SW,227,0.0,17.0,11,0.00,,,0.00,9,Wunderground v.1.15,2013-05-17 02:00:00,
2013-05-16 19:10:00,77.7,19.0,29.71,SW,224,0.0,0.0,11,0.00,,,0.00,5,Wunderground v.1.15,2013-05-17 02:10:00,
2013-05-16 19:20:00,76.6,20.1,29.71,SW,229,0.0,0.0,12,0.00,,,0.00,0,Wunderground v.1.15,2013-05-17 02:20:00,
2013-05-16 19:30:00,75.3,19.1,29.71,SW,221,0.0,0.0,12,0.00,,,0.00,0,Wunderground v.1.15,2013-05-17 02:30:00,
2013-05-16 19:40:00,74.5,20.4,29.72,SW,229,0.0,0.0,13,0.00,,,0.00,0,Wunderground v.1.15,2013-05-17 02:40:00,
2013-05-16 19:50:00,74.7,20.5,29.72,SW,226,0.0,0.0,13,0.00,,,0.00,0,Wunderground v.1.15,2013-05-17 02:50:00,
2013-05-16 20:00:00,73.3,21.2,29.73,WSW,237,0.0,0.0,14,0.00,,,0.00,0,Wunderground v.1.15,2013-05-17 03:00:00,
2013-05-16 20:10:00,73.3,21.2,29.73,SW,234,0.0,10.0,14,0.00,,,0.00,0,Wunderground v.1.15,2013-05-17 03:10:00,
2013-05-16 20:20:00,74.3,22.0,29.73,SW,231,0.0,10.0,14,0.00,,,0.00,0,Wunderground v.1.15,2013-05-17 03:20:00,
2013-05-16 20:30:00,74.7,22.3,29.73,WSW,238,1.0,10.0,14,0.00,,,0.00,0,Wunderground v.1.15,2013-05-17 03:30:00,
2013-05-16 20:40:00,75.3,22.8,29.73,WSW,246,1.0,1.0,14,0.00,,,0.00,0,Wunderground v.1.15,2013-05-17 03:40:00,
2013-05-16 20:50:00,74.9,22.5,29.74,WSW,248,1.0,1.0,14,0.00,,,0.00,0,Wunderground v.1.15,2013-05-17 03:50:00,
2013-05-16 21:00:00,74.8,22.4,29.74,WSW,240,0.0,10.0,14,0.00,,,0.00,0,Wunderground v.1.15,2013-05-17 04:00:00,
2013-05-16 21:10:00,73.5,23.0,29.75,WSW,246,0.0,0.0,15,0.00,,,0.00,0,Wunderground v.1.15,2013-05-17 04:10:00,
2013-05-16 21:20:00,72.5,22.2,29.75,WSW,245,0.0,0.0,15,0.00,,,0.00,0,Wunderground v.1.15,2013-05-17 04:20:00,
2013-05-16 21:30:00,71.9,21.7,29.75,WSW,245,0.0,0.0,15,0.00,,,0.00,0,Wunderground v.1.15,2013-05-17 04:30:00,
2013-05-16 21:40:00,71.6,23.0,29.75,WSW,246,0.0,0.0,16,0.00,,,0.00,0,Wunderground v.1.15,2013-05-17 04:40:00,
2013-05-16 21:50:00,72.1,21.9,29.75,WSW,238,0.0,2.0,15,0.00,,,0.00,0,Wunderground v.1.15,2013-05-17 04:50:00,
2013-05-16 22:00:00,72.3,22.0,29.76,WSW,253,0.0,0.0,15,0.00,,,0.00,0,Wunderground v.1.15,2013-05-17 05:00:00,
2013-05-16 22:10:00,72.4,22.1,29.76,WSW,253,2.0,2.0,15,0.00,,,0.00,0,Wunderground v.1.15,2013-05-17 05:10:00,
2013-05-16 22:20:00,73.9,21.7,29.76,WSW,254,4.0,6.0,14,0.00,,,0.00,0,Wunderground v.1.15,2013-05-17 05:20:00,
2013-05-16 22:30:00,74.0,21.7,29.76,WSW,255,2.0,6.0,14,0.00,,,0.00,0,Wunderground v.1.15,2013-05-17 05:30:00,
2013-05-16 22:40:00,73.4,21.3,29.76,WSW,252,1.0,1.0,14,0.00,,,0.00,0,Wunderground v.1.15,2013-05-17 05:40:00,
2013-05-16 22:50:00,72.6,22.3,29.76,SSW,202,0.0,6.0,15,0.00,,,0.00,0,Wunderground v.1.15,2013-05-17 05:50:00,
2013-05-16 23:00:00,69.4,22.7,29.76,SE,126,0.0,6.0,17,0.00,,,0.00,0,Wunderground v.1.15,2013-05-17 06:00:00,
2013-05-16 23:10:00,66.7,23.1,29.75,ESE,122,0.0,6.0,19,0.00,,,0.00,0,Wunderground v.1.15,2013-05-17 06:10:00,
2013-05-16 23:20:00,66.1,22.6,29.76,East,92,0.0,6.0,19,0.00,,,0.00,0,Wunderground v.1.15,2013-05-17 06:20:00,
2013-05-16 23:30:00,65.0,22.9,29.76,East,101,0.0,6.0,20,0.00,,,0.00,0,Wunderground v.1.15,2013-05-17 06:30:00,
2013-05-16 23:40:00,64.3,23.5,29.76,ENE,69,1.0,1.0,21,0.00,,,0.00,0,Wunderground v.1.15,2013-05-17 06:40:00,
2013-05-16 23:50:00,63.5,22.8,29.77,East,84,0.0,6.0,21,0.00,,,0.00,0,Wunderground v.1.15,2013-05-17 06:50:00,